• Join FlightAware (Why Join?)
  • Login
  • US Flag 
11:52AM EDT


 

Airport Tracker/Info


-or-


 

Live Flight TrackerFlight Track Log ✈ VNR109 ✈ 08-Jun-2013 ✈ KECP - KPBI

Flight Track Log - Related Links

Times and Time Zones

All times are in EDT time to prevent confusion due to time zone crossing. See the VNR109 flight status page for this flight to view local times or setup timezone preferences in your user account.

Time Position Orientation Groundspeed Altitude Reporting Facility
EDT Latitude Longitude Course Direction KTS MPH feet Rate Location/Type
04:22PM 30.1649 -85.4754 125° Southeast  Level Estimated
04:23PM 30.1418 -85.4374 125° Southeast  Level Estimated
04:24PM 30.1188 -85.3995 125° Southeast  Level Estimated
04:25PM 30.1299 -85.3567 73° East  Level FlightAware Approximate
04:26PM 30.1410 -85.3139 73° East  Level FlightAware Approximate
04:27PM 30.1521 -85.2711 73° East  Level FlightAware Approximate
04:28PM 30.1631 -85.2283 73° East  Level FlightAware Approximate
04:29PM 30.1402 -85.1924 109° East  Level Estimated
04:30PM 30.1348 -85.1481 98° East  Level FlightAware Approximate
04:31PM 30.1264 -85.1044 103° East  Level FlightAware Approximate
04:31PM 30.0147 -84.4494 107° East 284 327 7,500  Level Jacksonville Center
04:32PM 30.1179 -85.0608 103° East  Level FlightAware Approximate
04:32PM 29.9972 -84.3581 102° East 284 327 7,500  Level Jacksonville Center
04:33PM 30.1094 -85.0171 103° East  Level FlightAware Approximate
04:33PM 29.9794 -84.2689 103° East 289 333 7,500  Level Jacksonville Center
04:34PM 30.0976 -84.9725 107° East  Level FlightAware Approximate
04:34PM 29.9572 -84.1800 106° East 284 327 7,500  Level Jacksonville Center
04:35PM 30.0858 -84.9281 107° East  Level FlightAware Approximate
04:35PM 29.9372 -84.0839 103° East 284 327 7,500  Level Jacksonville Center
04:36PM 30.0739 -84.8836 107° East  Level FlightAware Approximate
04:36PM 29.9172 -83.9997 105° East 301 346 7,500  Level Jacksonville Center
04:37PM 29.8950 -83.9131 106° East 308 354 7,500  Level Jacksonville Center
04:38PM 29.8242 -83.8814 159° South 248 285 7,500  Level Jacksonville Center
04:39PM 29.7494 -83.8494 160° South 262 302 7,500  Level Jacksonville Center
04:40PM 29.6869 -83.8106 152° Southeast 279 321 7,500 540 Level Jacksonville Center
04:41PM 29.6058 -83.7572 150° Southeast 284 327 8,600 1,320 Climbing Jacksonville Center
04:42PM 29.5456 -83.7208 152° Southeast 263 303 10,200 1,440 Climbing Jacksonville Center
04:43PM 29.4875 -83.6822 150° Southeast 257 296 11,500 600 Climbing Jacksonville Center
04:44PM 29.4167 -83.6364 151° Southeast 257 296 11,500  Level Jacksonville Center
04:45PM 29.3419 -83.5881 151° Southeast 285 328 11,500  Level Jacksonville Center
04:46PM 29.2669 -83.5378 150° Southeast 308 354 11,500  Level Jacksonville Center
04:47PM 29.1919 -83.4919 152° Southeast 308 354 11,500  Level Jacksonville Center
04:48PM 29.1172 -83.4439 151° Southeast 303 349 11,500  Level Jacksonville Center
04:49PM 29.0442 -83.3961 150° Southeast 303 349 11,500  Level Jacksonville Center
04:50PM 28.9672 -83.3506 153° Southeast 303 349 11,500  Level Jacksonville Center
04:51PM 28.8944 -83.3028 150° Southeast 303 349 11,500  Level Jacksonville Center
04:52PM 28.8194 -83.2575 152° Southeast 303 349 11,500  Level Jacksonville Center
04:53PM 28.7464 -83.2100 150° Southeast 303 349 11,500  Level Jacksonville Center
04:55PM 28.6000 -83.1333 155° Southeast 298 343 11,500  Level Tampa TRACON
04:56PM 28.5167 -83.0833 152° Southeast 298 343 11,500  Level Tampa TRACON
04:57PM 28.4333 -83.0500 161° South 297 342 11,500  Level Tampa TRACON
04:58PM 28.3667 -83.0167 156° South 296 341 11,500  Level Tampa TRACON
04:59PM 28.2833 -82.9833 161° South 293 337 11,500  Level Tampa TRACON
05:00PM 28.2167 -82.9500 156° South 292 336 11,500  Level Tampa TRACON
05:01PM 28.1500 -82.9167 156° South 294 338 11,500  Level Tampa TRACON
05:02PM 28.0667 -82.8833 161° South 293 337 11,500  Level Tampa TRACON
05:03PM 28.0000 -82.8333 146° Southeast 293 337 11,500  Level Tampa TRACON
05:04PM 27.9167 -82.8000 161° South 292 336 11,500  Level Tampa TRACON
05:05PM 27.8333 -82.7667 161° South 290 334 11,500  Level Tampa TRACON
05:06PM 27.7667 -82.7333 156° South 290 334 11,500  Level Tampa TRACON
05:07PM 27.7000 -82.7000 156° South 290 334 11,500  Level Tampa TRACON
05:08PM 27.6167 -82.6667 160° South 290 334 11,500  Level Tampa TRACON
05:10PM 27.4686 -82.6419 172° South 326 375 11,500  Level Miami Center
05:11PM 27.3875 -82.6333 175° South 306 352 11,500  Level Miami Center
05:12PM 27.3064 -82.6269 176° South 294 338 11,500  Level Miami Center
05:13PM 27.2275 -82.6183 174° South 289 333 11,500  Level Miami Center
05:14PM 27.1486 -82.6072 173° South 289 333 11,500  Level Miami Center
05:15PM 27.0794 -82.5667 152° Southeast 289 333 11,500  Level Miami Center
05:16PM 27.0194 -82.5008 136° Southeast 282 325 11,500  Level Miami Center
05:17PM 26.9742 -82.4264 124° Southeast 287 330 11,500  Level Miami Center
05:18PM 26.9486 -82.3344 107° East 287 330 11,500  Level Miami Center
05:19PM 26.9267 -82.2472 106° East 293 337 11,500  Level Miami Center
05:20PM 26.9092 -82.1533 102° East 298 343 11,500 -360 Level Miami Center
05:21PM 26.8894 -82.0639 104° East 298 343 10,800 -1,200 Descending Miami Center
05:22PM 26.8717 -81.9817 104° East 298 343 9,200 -1,560 Descending Miami Center
05:23PM 26.8539 -81.8925 103° East 291 335 7,700 -1,500 Descending Miami Center
05:24PM 26.8358 -81.8125 104° East 276 318 6,200 -1,140 Descending Miami Center
05:25PM 26.8175 -81.7350 105° East 271 312 5,500 -360 Descending Miami Center
05:26PM 26.7997 -81.6436 102° East 265 305 5,500  Level Miami Center
05:27PM 26.7833 -81.5639 103° East 265 305 5,500  Level Miami Center
05:28PM 26.7672 -81.4864 103° East 265 305 5,500  Level Miami Center
05:29PM 26.7506 -81.4183 105° East 258 297 5,500  Level Miami Center
05:30PM 26.7344 -81.3339 102° East 258 297 5,500  Level Miami Center
05:31PM 26.7244 -81.2522 98° East 262 302 5,500 -420 Level Miami Center
05:32PM 26.7183 -81.1731 95° East 257 296 4,700 -960 Descending Miami Center
05:33PM 26.7183 -81.1033 90° East 242 278 3,600 -600 Descending Miami Center
05:34PM 26.7178 -81.0450 91° East 215 247 3,500 -60 Descending Miami Center
05:35PM 26.7136 -80.9775 94° East 215 247 3,500  Level Miami Center
05:36PM 26.7117 -80.9008 92° East 215 247 3,500  Level Miami Center
05:37PM 26.7281 -80.8339 75° East 215 247 3,500  Level Miami Center
05:38PM 26.7464 -80.7717 72° East 225 259 3,500  Level Miami Center
05:39PM 26.7689 -80.7097 68° East 225 259 3,500  Level Miami Center
05:40PM 26.7897 -80.6311 73° East 234 269 3,500  Level Miami Center
05:41PM 26.7575 -80.5836 127° Southeast 196 226 3,500 -300 Level Miami Center
05:42PM 26.7256 -80.5244 121° Southeast 201 231 3,000 -300 Descending Miami Center
05:43PM 26.7103 -80.4728 108° East 201 231 3,000  Level Miami Center
05:44PM 26.6950 -80.4097 105° East 192 221 3,000  Level Miami Center
05:46PM 26.6815 -80.2766 95° East  Level FlightAware Approximate
05:53PM 26.6832 -80.0956 95° East  Level Estimated
05:54PM 26.6832 -80.0956 95° East  Level Estimated
05:55PM 26.6832 -80.0956 95° East  Level Estimated
05:56PM 26.6832 -80.0956 95° East  Level Estimated
05:57PM 26.6832 -80.0956 95° East  Level Estimated
05:58PM 26.6832 -80.0956 95° East  Level Estimated
05:59PM 26.6832 -80.0956 95° East  Level Estimated
06:00PM 26.6832 -80.0956 95° East  Level Estimated